sensor_id;sensor_type;location;lat;lon;timestamp;P1;durP1;ratioP1;P2;durP2;ratioP2
15946;SDS011;8072;52.554;7.966;2023-07-13T00:00:11;8.23;;;3.90;;
15946;SDS011;8072;52.554;7.966;2023-07-13T00:02:40;12.37;;;3.97;;
15946;SDS011;8072;52.554;7.966;2023-07-13T00:05:06;9.00;;;3.70;;
15946;SDS011;8072;52.554;7.966;2023-07-13T00:07:32;15.07;;;4.03;;
15946;SDS011;8072;52.554;7.966;2023-07-13T00:09:58;10.27;;;4.03;;
15946;SDS011;8072;52.554;7.966;2023-07-13T00:12:28;8.80;;;4.13;;
15946;SDS011;8072;52.554;7.966;2023-07-13T00:14:59;18.17;;;4.37;;
15946;SDS011;8072;52.554;7.966;2023-07-13T00:17:28;11.10;;;3.80;;
15946;SDS011;8072;52.554;7.966;2023-07-13T00:19:54;6.83;;;3.53;;
15946;SDS011;8072;52.554;7.966;2023-07-13T00:22:21;7.73;;;3.73;;
15946;SDS011;8072;52.554;7.966;2023-07-13T00:24:50;10.23;;;3.90;;
15946;SDS011;8072;52.554;7.966;2023-07-13T00:27:17;11.93;;;3.63;;
15946;SDS011;8072;52.554;7.966;2023-07-13T00:29:44;13.43;;;3.77;;
15946;SDS011;8072;52.554;7.966;2023-07-13T00:32:09;5.60;;;3.30;;
15946;SDS011;8072;52.554;7.966;2023-07-13T00:34:37;11.87;;;3.50;;
15946;SDS011;8072;52.554;7.966;2023-07-13T00:37:04;9.13;;;3.00;;
15946;SDS011;8072;52.554;7.966;2023-07-13T00:39:32;9.90;;;2.83;;
15946;SDS011;8072;52.554;7.966;2023-07-13T00:41:59;8.23;;;2.90;;
15946;SDS011;8072;52.554;7.966;2023-07-13T00:44:25;5.13;;;2.87;;
15946;SDS011;8072;52.554;7.966;2023-07-13T00:46:52;5.00;;;2.70;;
15946;SDS011;8072;52.554;7.966;2023-07-13T00:49:19;9.80;;;2.80;;
15946;SDS011;8072;52.554;7.966;2023-07-13T00:51:52;7.10;;;2.97;;
15946;SDS011;8072;52.554;7.966;2023-07-13T00:54:24;6.90;;;2.70;;
15946;SDS011;8072;52.554;7.966;2023-07-13T00:56:55;7.57;;;2.70;;
15946;SDS011;8072;52.554;7.966;2023-07-13T00:59:26;5.77;;;2.60;;
15946;SDS011;8072;52.554;7.966;2023-07-13T01:01:51;6.97;;;2.37;;
15946;SDS011;8072;52.554;7.966;2023-07-13T01:04:18;11.23;;;2.63;;
15946;SDS011;8072;52.554;7.966;2023-07-13T01:06:43;8.30;;;2.30;;
15946;SDS011;8072;52.554;7.966;2023-07-13T01:09:12;9.37;;;2.30;;
15946;SDS011;8072;52.554;7.966;2023-07-13T01:11:39;7.30;;;2.67;;
15946;SDS011;8072;52.554;7.966;2023-07-13T01:14:06;12.30;;;2.93;;
15946;SDS011;8072;52.554;7.966;2023-07-13T01:16:33;7.10;;;2.50;;
15946;SDS011;8072;52.554;7.966;2023-07-13T01:19:01;12.33;;;2.67;;
15946;SDS011;8072;52.554;7.966;2023-07-13T01:21:38;8.80;;;2.83;;
15946;SDS011;8072;52.554;7.966;2023-07-13T01:24:08;7.47;;;2.60;;
15946;SDS011;8072;52.554;7.966;2023-07-13T01:26:35;7.73;;;2.10;;
15946;SDS011;8072;52.554;7.966;2023-07-13T01:29:01;5.07;;;2.27;;
15946;SDS011;8072;52.554;7.966;2023-07-13T01:31:27;6.87;;;2.47;;
15946;SDS011;8072;52.554;7.966;2023-07-13T01:33:53;5.20;;;2.03;;
15946;SDS011;8072;52.554;7.966;2023-07-13T01:36:19;8.80;;;2.67;;
15946;SDS011;8072;52.554;7.966;2023-07-13T01:38:46;7.37;;;2.67;;
15946;SDS011;8072;52.554;7.966;2023-07-13T01:41:11;5.23;;;2.17;;
15946;SDS011;8072;52.554;7.966;2023-07-13T01:43:37;7.40;;;2.00;;
15946;SDS011;8072;52.554;7.966;2023-07-13T01:46:04;10.80;;;2.17;;
15946;SDS011;8072;52.554;7.966;2023-07-13T01:48:30;11.93;;;2.83;;
15946;SDS011;8072;52.554;7.966;2023-07-13T01:50:56;6.20;;;2.70;;
15946;SDS011;8072;52.554;7.966;2023-07-13T01:53:21;7.90;;;2.30;;
15946;SDS011;8072;52.554;7.966;2023-07-13T01:55:47;8.00;;;2.80;;
15946;SDS011;8072;52.554;7.966;2023-07-13T01:58:13;6.57;;;2.40;;
15946;SDS011;8072;52.554;7.966;2023-07-13T02:00:38;9.73;;;3.00;;
15946;SDS011;8072;52.554;7.966;2023-07-13T02:03:04;10.53;;;2.73;;
15946;SDS011;8072;52.554;7.966;2023-07-13T02:05:30;10.13;;;2.20;;
15946;SDS011;8072;52.554;7.966;2023-07-13T02:07:56;9.13;;;2.47;;
15946;SDS011;8072;52.554;7.966;2023-07-13T02:10:21;8.20;;;2.60;;
15946;SDS011;8072;52.554;7.966;2023-07-13T02:12:48;7.50;;;2.53;;
15946;SDS011;8072;52.554;7.966;2023-07-13T02:15:15;7.97;;;2.23;;
15946;SDS011;8072;52.554;7.966;2023-07-13T02:17:42;7.63;;;2.30;;
15946;SDS011;8072;52.554;7.966;2023-07-13T02:20:07;8.47;;;2.60;;
15946;SDS011;8072;52.554;7.966;2023-07-13T02:22:34;13.10;;;2.83;;
15946;SDS011;8072;52.554;7.966;2023-07-13T02:25:00;9.03;;;2.33;;
15946;SDS011;8072;52.554;7.966;2023-07-13T02:27:28;11.03;;;3.03;;
15946;SDS011;8072;52.554;7.966;2023-07-13T02:29:53;8.50;;;2.87;;
15946;SDS011;8072;52.554;7.966;2023-07-13T02:32:19;14.27;;;2.80;;
15946;SDS011;8072;52.554;7.966;2023-07-13T02:34:45;12.57;;;3.40;;
15946;SDS011;8072;52.554;7.966;2023-07-13T02:37:11;4.63;;;2.33;;
15946;SDS011;8072;52.554;7.966;2023-07-13T02:39:37;8.70;;;2.90;;
15946;SDS011;8072;52.554;7.966;2023-07-13T02:42:03;9.93;;;2.57;;
15946;SDS011;8072;52.554;7.966;2023-07-13T02:44:29;9.03;;;2.53;;
15946;SDS011;8072;52.554;7.966;2023-07-13T02:46:54;10.53;;;2.80;;
15946;SDS011;8072;52.554;7.966;2023-07-13T02:49:20;8.97;;;2.30;;
15946;SDS011;8072;52.554;7.966;2023-07-13T02:51:46;11.13;;;2.57;;
15946;SDS011;8072;52.554;7.966;2023-07-13T02:54:12;10.03;;;2.87;;
15946;SDS011;8072;52.554;7.966;2023-07-13T02:56:39;8.33;;;2.50;;
15946;SDS011;8072;52.554;7.966;2023-07-13T02:59:05;6.93;;;2.73;;
15946;SDS011;8072;52.554;7.966;2023-07-13T03:01:31;8.97;;;2.80;;
15946;SDS011;8072;52.554;7.966;2023-07-13T03:04:00;7.40;;;2.60;;
15946;SDS011;8072;52.554;7.966;2023-07-13T03:06:26;9.03;;;3.20;;
15946;SDS011;8072;52.554;7.966;2023-07-13T03:08:56;8.80;;;2.70;;
15946;SDS011;8072;52.554;7.966;2023-07-13T03:11:21;6.93;;;3.43;;
15946;SDS011;8072;52.554;7.966;2023-07-13T03:13:47;13.70;;;3.57;;
15946;SDS011;8072;52.554;7.966;2023-07-13T03:16:13;12.63;;;3.40;;
15946;SDS011;8072;52.554;7.966;2023-07-13T03:18:40;11.20;;;3.17;;
15946;SDS011;8072;52.554;7.966;2023-07-13T03:21:06;6.10;;;3.20;;
15946;SDS011;8072;52.554;7.966;2023-07-13T03:23:32;11.27;;;3.50;;
15946;SDS011;8072;52.554;7.966;2023-07-13T03:26:05;10.83;;;3.73;;
15946;SDS011;8072;52.554;7.966;2023-07-13T03:28:31;10.40;;;3.07;;
15946;SDS011;8072;52.554;7.966;2023-07-13T03:31:04;7.00;;;2.97;;
15946;SDS011;8072;52.554;7.966;2023-07-13T03:33:32;10.83;;;3.40;;
15946;SDS011;8072;52.554;7.966;2023-07-13T03:35:58;9.70;;;3.33;;
15946;SDS011;8072;52.554;7.966;2023-07-13T03:38:24;5.90;;;2.97;;
15946;SDS011;8072;52.554;7.966;2023-07-13T03:40:51;13.57;;;3.80;;
15946;SDS011;8072;52.554;7.966;2023-07-13T03:43:18;13.90;;;3.97;;
15946;SDS011;8072;52.554;7.966;2023-07-13T03:45:46;12.27;;;4.03;;
15946;SDS011;8072;52.554;7.966;2023-07-13T03:48:12;8.03;;;3.00;;
15946;SDS011;8072;52.554;7.966;2023-07-13T03:50:38;11.17;;;3.50;;
15946;SDS011;8072;52.554;7.966;2023-07-13T03:53:04;9.13;;;3.30;;
15946;SDS011;8072;52.554;7.966;2023-07-13T03:55:30;7.70;;;3.40;;
15946;SDS011;8072;52.554;7.966;2023-07-13T03:57:59;8.00;;;3.00;;
15946;SDS011;8072;52.554;7.966;2023-07-13T04:00:46;10.10;;;3.60;;
15946;SDS011;8072;52.554;7.966;2023-07-13T04:03:12;13.83;;;3.60;;
15946;SDS011;8072;52.554;7.966;2023-07-13T04:05:38;11.17;;;3.90;;
15946;SDS011;8072;52.554;7.966;2023-07-13T04:08:05;9.47;;;3.43;;
15946;SDS011;8072;52.554;7.966;2023-07-13T04:10:31;8.27;;;3.37;;
15946;SDS011;8072;52.554;7.966;2023-07-13T04:12:57;11.40;;;3.13;;
15946;SDS011;8072;52.554;7.966;2023-07-13T04:15:23;9.53;;;3.70;;
15946;SDS011;8072;52.554;7.966;2023-07-13T04:17:48;11.73;;;2.90;;
15946;SDS011;8072;52.554;7.966;2023-07-13T04:20:14;9.50;;;3.63;;
15946;SDS011;8072;52.554;7.966;2023-07-13T04:22:40;10.37;;;3.30;;
15946;SDS011;8072;52.554;7.966;2023-07-13T04:25:06;11.27;;;3.60;;
15946;SDS011;8072;52.554;7.966;2023-07-13T04:27:32;13.27;;;4.00;;
15946;SDS011;8072;52.554;7.966;2023-07-13T04:29:57;6.83;;;3.70;;
15946;SDS011;8072;52.554;7.966;2023-07-13T04:32:23;10.27;;;3.80;;
15946;SDS011;8072;52.554;7.966;2023-07-13T04:34:49;11.50;;;3.47;;
15946;SDS011;8072;52.554;7.966;2023-07-13T04:37:18;7.43;;;3.40;;
15946;SDS011;8072;52.554;7.966;2023-07-13T04:39:45;9.27;;;3.60;;
15946;SDS011;8072;52.554;7.966;2023-07-13T04:42:11;15.77;;;3.77;;
15946;SDS011;8072;52.554;7.966;2023-07-13T04:44:36;9.63;;;3.00;;
15946;SDS011;8072;52.554;7.966;2023-07-13T04:47:03;17.00;;;3.50;;
15946;SDS011;8072;52.554;7.966;2023-07-13T04:49:29;10.47;;;3.20;;
15946;SDS011;8072;52.554;7.966;2023-07-13T04:51:55;12.73;;;3.60;;
15946;SDS011;8072;52.554;7.966;2023-07-13T04:54:21;11.97;;;3.37;;
15946;SDS011;8072;52.554;7.966;2023-07-13T04:56:47;9.20;;;3.17;;
15946;SDS011;8072;52.554;7.966;2023-07-13T04:59:12;12.27;;;3.63;;
15946;SDS011;8072;52.554;7.966;2023-07-13T05:01:38;8.20;;;3.87;;
15946;SDS011;8072;52.554;7.966;2023-07-13T05:04:05;9.07;;;3.20;;
15946;SDS011;8072;52.554;7.966;2023-07-13T05:06:31;6.13;;;3.27;;
15946;SDS011;8072;52.554;7.966;2023-07-13T05:08:57;9.53;;;3.50;;
15946;SDS011;8072;52.554;7.966;2023-07-13T05:11:23;6.07;;;3.53;;
15946;SDS011;8072;52.554;7.966;2023-07-13T05:13:49;14.97;;;3.53;;
15946;SDS011;8072;52.554;7.966;2023-07-13T05:16:15;15.53;;;4.03;;
15946;SDS011;8072;52.554;7.966;2023-07-13T05:18:41;11.50;;;3.83;;
15946;SDS011;8072;52.554;7.966;2023-07-13T05:21:07;8.43;;;3.70;;
15946;SDS011;8072;52.554;7.966;2023-07-13T05:23:34;8.10;;;3.13;;
15946;SDS011;8072;52.554;7.966;2023-07-13T05:26:01;12.57;;;3.10;;
15946;SDS011;8072;52.554;7.966;2023-07-13T05:28:27;7.13;;;3.10;;
15946;SDS011;8072;52.554;7.966;2023-07-13T05:30:53;12.30;;;3.77;;
15946;SDS011;8072;52.554;7.966;2023-07-13T05:33:20;9.63;;;3.27;;
15946;SDS011;8072;52.554;7.966;2023-07-13T05:35:47;8.13;;;3.37;;
15946;SDS011;8072;52.554;7.966;2023-07-13T05:38:12;6.40;;;3.40;;
15946;SDS011;8072;52.554;7.966;2023-07-13T05:40:38;10.37;;;3.63;;
15946;SDS011;8072;52.554;7.966;2023-07-13T05:43:04;7.37;;;3.27;;
15946;SDS011;8072;52.554;7.966;2023-07-13T05:45:30;10.40;;;3.90;;
15946;SDS011;8072;52.554;7.966;2023-07-13T05:47:56;11.90;;;4.10;;
15946;SDS011;8072;52.554;7.966;2023-07-13T05:50:22;11.33;;;3.70;;
15946;SDS011;8072;52.554;7.966;2023-07-13T05:52:48;9.43;;;4.27;;
15946;SDS011;8072;52.554;7.966;2023-07-13T05:55:13;7.90;;;3.50;;
15946;SDS011;8072;52.554;7.966;2023-07-13T05:57:39;13.60;;;4.00;;
15946;SDS011;8072;52.554;7.966;2023-07-13T06:00:05;12.93;;;4.00;;
15946;SDS011;8072;52.554;7.966;2023-07-13T06:02:31;10.17;;;4.10;;
15946;SDS011;8072;52.554;7.966;2023-07-13T06:04:57;15.43;;;4.07;;
15946;SDS011;8072;52.554;7.966;2023-07-13T06:07:23;13.30;;;4.03;;
15946;SDS011;8072;52.554;7.966;2023-07-13T06:09:49;11.30;;;3.90;;
15946;SDS011;8072;52.554;7.966;2023-07-13T06:12:14;10.10;;;3.73;;
15946;SDS011;8072;52.554;7.966;2023-07-13T06:14:40;9.57;;;3.87;;
15946;SDS011;8072;52.554;7.966;2023-07-13T06:17:07;8.63;;;3.97;;
15946;SDS011;8072;52.554;7.966;2023-07-13T06:19:33;13.97;;;4.10;;
15946;SDS011;8072;52.554;7.966;2023-07-13T06:21:59;11.93;;;3.83;;
15946;SDS011;8072;52.554;7.966;2023-07-13T06:24:25;13.57;;;4.60;;
15946;SDS011;8072;52.554;7.966;2023-07-13T06:26:51;13.13;;;4.20;;
15946;SDS011;8072;52.554;7.966;2023-07-13T06:29:17;11.87;;;3.97;;
15946;SDS011;8072;52.554;7.966;2023-07-13T06:31:43;11.93;;;4.10;;
15946;SDS011;8072;52.554;7.966;2023-07-13T06:34:08;13.83;;;4.47;;
15946;SDS011;8072;52.554;7.966;2023-07-13T06:36:34;13.40;;;4.27;;
15946;SDS011;8072;52.554;7.966;2023-07-13T06:39:01;8.87;;;4.43;;
15946;SDS011;8072;52.554;7.966;2023-07-13T06:41:27;10.47;;;4.80;;
15946;SDS011;8072;52.554;7.966;2023-07-13T06:43:53;13.03;;;4.50;;
15946;SDS011;8072;52.554;7.966;2023-07-13T06:46:21;14.83;;;4.73;;
15946;SDS011;8072;52.554;7.966;2023-07-13T06:48:47;8.00;;;4.37;;
15946;SDS011;8072;52.554;7.966;2023-07-13T06:51:13;8.23;;;4.00;;
15946;SDS011;8072;52.554;7.966;2023-07-13T06:53:39;8.87;;;3.47;;
15946;SDS011;8072;52.554;7.966;2023-07-13T06:56:04;9.10;;;4.10;;
15946;SDS011;8072;52.554;7.966;2023-07-13T06:58:30;10.73;;;4.50;;
15946;SDS011;8072;52.554;7.966;2023-07-13T07:00:56;10.30;;;4.33;;
15946;SDS011;8072;52.554;7.966;2023-07-13T07:03:22;8.23;;;3.97;;
15946;SDS011;8072;52.554;7.966;2023-07-13T07:05:48;10.93;;;4.10;;
15946;SDS011;8072;52.554;7.966;2023-07-13T07:08:14;9.50;;;4.30;;
15946;SDS011;8072;52.554;7.966;2023-07-13T07:10:40;10.77;;;4.27;;
15946;SDS011;8072;52.554;7.966;2023-07-13T07:13:06;10.93;;;4.63;;
15946;SDS011;8072;52.554;7.966;2023-07-13T07:15:32;13.37;;;4.23;;
15946;SDS011;8072;52.554;7.966;2023-07-13T07:17:59;14.50;;;4.20;;
15946;SDS011;8072;52.554;7.966;2023-07-13T07:20:25;13.60;;;4.83;;
15946;SDS011;8072;52.554;7.966;2023-07-13T07:22:51;8.67;;;4.97;;
15946;SDS011;8072;52.554;7.966;2023-07-13T07:25:17;11.57;;;4.33;;
15946;SDS011;8072;52.554;7.966;2023-07-13T07:27:43;13.83;;;4.57;;
15946;SDS011;8072;52.554;7.966;2023-07-13T07:30:09;11.97;;;4.13;;
15946;SDS011;8072;52.554;7.966;2023-07-13T07:32:36;11.43;;;4.13;;
15946;SDS011;8072;52.554;7.966;2023-07-13T07:35:02;8.83;;;4.23;;
15946;SDS011;8072;52.554;7.966;2023-07-13T07:37:28;11.00;;;4.73;;
15946;SDS011;8072;52.554;7.966;2023-07-13T07:39:54;14.10;;;5.03;;
15946;SDS011;8072;52.554;7.966;2023-07-13T07:42:19;11.57;;;4.53;;
15946;SDS011;8072;52.554;7.966;2023-07-13T07:44:46;14.83;;;4.27;;
15946;SDS011;8072;52.554;7.966;2023-07-13T07:47:11;18.67;;;4.90;;
15946;SDS011;8072;52.554;7.966;2023-07-13T07:49:37;9.23;;;4.20;;
15946;SDS011;8072;52.554;7.966;2023-07-13T07:52:03;9.33;;;3.83;;
15946;SDS011;8072;52.554;7.966;2023-07-13T07:54:29;8.67;;;3.80;;
15946;SDS011;8072;52.554;7.966;2023-07-13T07:56:55;7.37;;;3.70;;
15946;SDS011;8072;52.554;7.966;2023-07-13T07:59:21;8.60;;;4.00;;
15946;SDS011;8072;52.554;7.966;2023-07-13T08:01:47;11.97;;;3.87;;
15946;SDS011;8072;52.554;7.966;2023-07-13T08:04:15;11.67;;;4.07;;
15946;SDS011;8072;52.554;7.966;2023-07-13T08:06:41;10.27;;;3.97;;
15946;SDS011;8072;52.554;7.966;2023-07-13T08:09:07;9.27;;;3.63;;
15946;SDS011;8072;52.554;7.966;2023-07-13T08:11:33;8.97;;;3.83;;
15946;SDS011;8072;52.554;7.966;2023-07-13T08:13:59;10.43;;;3.83;;
15946;SDS011;8072;52.554;7.966;2023-07-13T08:16:25;10.97;;;4.50;;
15946;SDS011;8072;52.554;7.966;2023-07-13T08:18:51;8.87;;;3.50;;
15946;SDS011;8072;52.554;7.966;2023-07-13T08:21:17;9.53;;;4.00;;
15946;SDS011;8072;52.554;7.966;2023-07-13T08:23:46;9.93;;;3.33;;
15946;SDS011;8072;52.554;7.966;2023-07-13T08:26:12;7.27;;;3.10;;
15946;SDS011;8072;52.554;7.966;2023-07-13T08:28:38;7.57;;;3.37;;
15946;SDS011;8072;52.554;7.966;2023-07-13T08:31:05;11.30;;;3.63;;
15946;SDS011;8072;52.554;7.966;2023-07-13T08:33:35;7.43;;;3.33;;
15946;SDS011;8072;52.554;7.966;2023-07-13T08:36:01;13.20;;;3.50;;
15946;SDS011;8072;52.554;7.966;2023-07-13T08:38:28;8.80;;;3.40;;
15946;SDS011;8072;52.554;7.966;2023-07-13T08:40:56;8.40;;;3.60;;
15946;SDS011;8072;52.554;7.966;2023-07-13T08:43:25;9.33;;;3.90;;
15946;SDS011;8072;52.554;7.966;2023-07-13T08:51:09;7.17;;;3.40;;
15946;SDS011;8072;52.554;7.966;2023-07-13T08:53:59;6.77;;;3.53;;
15946;SDS011;8072;52.554;7.966;2023-07-13T08:56:28;8.30;;;3.70;;
15946;SDS011;8072;52.554;7.966;2023-07-13T08:58:58;13.15;;;3.50;;
15946;SDS011;8072;52.554;7.966;2023-07-13T09:04:42;11.97;;;4.17;;
15946;SDS011;8072;52.554;7.966;2023-07-13T09:07:30;7.10;;;3.10;;
15946;SDS011;8072;52.554;7.966;2023-07-13T09:10:23;9.20;;;3.30;;
15946;SDS011;8072;52.554;7.966;2023-07-13T09:12:57;8.27;;;4.40;;
15946;SDS011;8072;52.554;7.966;2023-07-13T09:15:34;9.23;;;3.60;;
15946;SDS011;8072;52.554;7.966;2023-07-13T09:18:16;8.43;;;3.50;;
15946;SDS011;8072;52.554;7.966;2023-07-13T09:20:53;5.25;;;2.75;;
15946;SDS011;8072;52.554;7.966;2023-07-13T09:23:23;13.15;;;4.00;;
15946;SDS011;8072;52.554;7.966;2023-07-13T09:25:57;8.68;;;3.35;;
15946;SDS011;8072;52.554;7.966;2023-07-13T09:28:44;7.20;;;3.47;;
15946;SDS011;8072;52.554;7.966;2023-07-13T09:31:15;9.50;;;3.50;;
15946;SDS011;8072;52.554;7.966;2023-07-13T09:33:59;6.88;;;3.80;;
15946;SDS011;8072;52.554;7.966;2023-07-13T09:39:03;8.80;;;3.83;;
15946;SDS011;8072;52.554;7.966;2023-07-13T09:44:16;9.55;;;4.05;;
15946;SDS011;8072;52.554;7.966;2023-07-13T09:46:46;7.18;;;3.80;;
15946;SDS011;8072;52.554;7.966;2023-07-13T09:49:17;10.00;;;3.70;;
15946;SDS011;8072;52.554;7.966;2023-07-13T09:51:43;6.30;;;3.50;;
15946;SDS011;8072;52.554;7.966;2023-07-13T09:54:19;11.07;;;3.95;;
15946;SDS011;8072;52.554;7.966;2023-07-13T09:56:47;10.20;;;3.45;;
15946;SDS011;8072;52.554;7.966;2023-07-13T09:59:19;6.72;;;3.60;;
15946;SDS011;8072;52.554;7.966;2023-07-13T10:01:46;4.80;;;3.05;;
15946;SDS011;8072;52.554;7.966;2023-07-13T10:04:13;9.13;;;3.42;;
15946;SDS011;8072;52.554;7.966;2023-07-13T10:06:43;7.18;;;2.90;;
15946;SDS011;8072;52.554;7.966;2023-07-13T10:09:10;7.80;;;3.15;;
15946;SDS011;8072;52.554;7.966;2023-07-13T10:11:44;8.48;;;3.33;;
15946;SDS011;8072;52.554;7.966;2023-07-13T10:14:17;7.03;;;3.17;;
15946;SDS011;8072;52.554;7.966;2023-07-13T10:16:45;7.82;;;3.70;;
15946;SDS011;8072;52.554;7.966;2023-07-13T10:21:39;9.27;;;3.28;;
15946;SDS011;8072;52.554;7.966;2023-07-13T10:24:31;6.97;;;3.30;;
15946;SDS011;8072;52.554;7.966;2023-07-13T10:29:29;9.20;;;3.35;;
15946;SDS011;8072;52.554;7.966;2023-07-13T10:32:00;7.60;;;3.08;;
15946;SDS011;8072;52.554;7.966;2023-07-13T10:34:26;5.22;;;3.13;;
15946;SDS011;8072;52.554;7.966;2023-07-13T10:36:52;6.53;;;3.17;;
15946;SDS011;8072;52.554;7.966;2023-07-13T10:39:19;7.68;;;3.33;;
15946;SDS011;8072;52.554;7.966;2023-07-13T10:41:58;6.05;;;2.85;;
15946;SDS011;8072;52.554;7.966;2023-07-13T10:44:28;6.35;;;2.70;;
15946;SDS011;8072;52.554;7.966;2023-07-13T10:46:56;5.53;;;2.88;;
15946;SDS011;8072;52.554;7.966;2023-07-13T10:49:29;8.85;;;2.90;;
15946;SDS011;8072;52.554;7.966;2023-07-13T10:51:57;9.52;;;3.17;;
15946;SDS011;8072;52.554;7.966;2023-07-13T10:54:27;7.03;;;3.50;;
15946;SDS011;8072;52.554;7.966;2023-07-13T10:57:39;8.23;;;3.80;;
15946;SDS011;8072;52.554;7.966;2023-07-13T11:00:10;8.00;;;3.67;;
15946;SDS011;8072;52.554;7.966;2023-07-13T11:02:42;7.72;;;3.25;;
15946;SDS011;8072;52.554;7.966;2023-07-13T11:07:55;9.23;;;3.47;;
15946;SDS011;8072;52.554;7.966;2023-07-13T11:16:12;2.22;;;1.30;;
15946;SDS011;8072;52.554;7.966;2023-07-13T11:21:32;2.63;;;1.05;;
15946;SDS011;8072;52.554;7.966;2023-07-13T11:24:02;1.45;;;0.98;;
15946;SDS011;8072;52.554;7.966;2023-07-13T11:31:51;3.63;;;1.70;;
15946;SDS011;8072;52.554;7.966;2023-07-13T11:34:21;5.30;;;1.73;;
15946;SDS011;8072;52.554;7.966;2023-07-13T11:36:52;3.30;;;1.60;;
15946;SDS011;8072;52.554;7.966;2023-07-13T11:39:24;2.60;;;2.10;;
15946;SDS011;8072;52.554;7.966;2023-07-13T11:42:20;3.27;;;1.87;;
15946;SDS011;8072;52.554;7.966;2023-07-13T11:44:47;3.10;;;2.20;;
15946;SDS011;8072;52.554;7.966;2023-07-13T11:47:18;3.33;;;2.30;;
15946;SDS011;8072;52.554;7.966;2023-07-13T11:49:50;4.00;;;1.90;;
15946;SDS011;8072;52.554;7.966;2023-07-13T11:52:19;3.27;;;1.97;;
15946;SDS011;8072;52.554;7.966;2023-07-13T11:54:49;4.00;;;2.23;;
15946;SDS011;8072;52.554;7.966;2023-07-13T11:57:33;2.97;;;2.10;;
15946;SDS011;8072;52.554;7.966;2023-07-13T12:00:15;2.23;;;2.03;;
15946;SDS011;8072;52.554;7.966;2023-07-13T12:02:45;7.03;;;2.43;;
15946;SDS011;8072;52.554;7.966;2023-07-13T12:05:17;3.17;;;2.20;;
15946;SDS011;8072;52.554;7.966;2023-07-13T12:07:45;3.30;;;2.40;;
15946;SDS011;8072;52.554;7.966;2023-07-13T12:12:53;6.43;;;3.83;;
15946;SDS011;8072;52.554;7.966;2023-07-13T12:15:22;6.73;;;4.00;;
15946;SDS011;8072;52.554;7.966;2023-07-13T12:17:49;7.77;;;4.53;;
15946;SDS011;8072;52.554;7.966;2023-07-13T12:20:21;9.37;;;5.27;;
15946;SDS011;8072;52.554;7.966;2023-07-13T12:22:52;7.77;;;4.97;;
15946;SDS011;8072;52.554;7.966;2023-07-13T12:25:18;8.50;;;5.17;;
15946;SDS011;8072;52.554;7.966;2023-07-13T12:27:48;8.83;;;4.23;;
15946;SDS011;8072;52.554;7.966;2023-07-13T12:30:36;4.03;;;3.60;;
15946;SDS011;8072;52.554;7.966;2023-07-13T12:33:06;4.90;;;4.00;;
15946;SDS011;8072;52.554;7.966;2023-07-13T12:35:40;6.17;;;3.73;;
15946;SDS011;8072;52.554;7.966;2023-07-13T12:38:15;5.67;;;3.60;;
15946;SDS011;8072;52.554;7.966;2023-07-13T12:40:41;5.63;;;3.70;;
15946;SDS011;8072;52.554;7.966;2023-07-13T12:43:10;5.23;;;3.63;;
15946;SDS011;8072;52.554;7.966;2023-07-13T12:45:38;5.73;;;3.47;;
15946;SDS011;8072;52.554;7.966;2023-07-13T12:48:05;5.77;;;3.90;;
15946;SDS011;8072;52.554;7.966;2023-07-13T12:50:40;6.90;;;4.30;;
15946;SDS011;8072;52.554;7.966;2023-07-13T12:53:14;4.80;;;3.60;;
15946;SDS011;8072;52.554;7.966;2023-07-13T12:55:47;7.63;;;4.20;;
15946;SDS011;8072;52.554;7.966;2023-07-13T12:58:17;7.23;;;3.90;;
15946;SDS011;8072;52.554;7.966;2023-07-13T13:00:54;5.97;;;3.07;;
15946;SDS011;8072;52.554;7.966;2023-07-13T13:05:59;6.47;;;2.87;;
15946;SDS011;8072;52.554;7.966;2023-07-13T13:08:25;2.70;;;2.50;;
15946;SDS011;8072;52.554;7.966;2023-07-13T13:10:51;3.90;;;2.90;;
15946;SDS011;8072;52.554;7.966;2023-07-13T13:13:16;3.63;;;2.60;;
15946;SDS011;8072;52.554;7.966;2023-07-13T13:15:42;7.47;;;2.90;;
15946;SDS011;8072;52.554;7.966;2023-07-13T13:18:29;3.70;;;3.00;;
15946;SDS011;8072;52.554;7.966;2023-07-13T13:20:54;4.53;;;3.37;;
15946;SDS011;8072;52.554;7.966;2023-07-13T13:23:20;4.80;;;3.50;;
15946;SDS011;8072;52.554;7.966;2023-07-13T13:25:48;7.10;;;4.30;;
15946;SDS011;8072;52.554;7.966;2023-07-13T13:28:17;7.40;;;4.10;;
15946;SDS011;8072;52.554;7.966;2023-07-13T13:30:45;7.47;;;4.60;;
15946;SDS011;8072;52.554;7.966;2023-07-13T13:33:13;7.60;;;5.00;;
15946;SDS011;8072;52.554;7.966;2023-07-13T13:35:40;8.57;;;4.77;;
15946;SDS011;8072;52.554;7.966;2023-07-13T13:40:43;6.43;;;4.60;;
15946;SDS011;8072;52.554;7.966;2023-07-13T13:43:14;6.63;;;5.23;;
15946;SDS011;8072;52.554;7.966;2023-07-13T13:45:44;11.23;;;6.03;;
15946;SDS011;8072;52.554;7.966;2023-07-13T13:48:20;12.73;;;6.60;;
15946;SDS011;8072;52.554;7.966;2023-07-13T13:50:55;9.33;;;5.77;;
15946;SDS011;8072;52.554;7.966;2023-07-13T13:53:21;8.87;;;6.07;;
15946;SDS011;8072;52.554;7.966;2023-07-13T13:55:48;8.43;;;6.20;;
15946;SDS011;8072;52.554;7.966;2023-07-13T13:58:15;10.57;;;5.93;;
15946;SDS011;8072;52.554;7.966;2023-07-13T14:00:41;10.70;;;6.77;;
15946;SDS011;8072;52.554;7.966;2023-07-13T14:03:17;9.40;;;6.47;;
15946;SDS011;8072;52.554;7.966;2023-07-13T14:05:45;8.73;;;5.97;;
15946;SDS011;8072;52.554;7.966;2023-07-13T14:08:14;10.80;;;6.07;;
15946;SDS011;8072;52.554;7.966;2023-07-13T14:10:42;8.07;;;6.10;;
15946;SDS011;8072;52.554;7.966;2023-07-13T14:13:20;7.37;;;5.00;;
15946;SDS011;8072;52.554;7.966;2023-07-13T14:15:51;7.77;;;4.70;;
15946;SDS011;8072;52.554;7.966;2023-07-13T14:18:18;5.83;;;4.80;;
15946;SDS011;8072;52.554;7.966;2023-07-13T14:20:44;7.13;;;4.10;;
15946;SDS011;8072;52.554;7.966;2023-07-13T14:23:12;5.80;;;4.30;;
15946;SDS011;8072;52.554;7.966;2023-07-13T14:25:39;6.87;;;4.47;;
15946;SDS011;8072;52.554;7.966;2023-07-13T14:30:50;8.33;;;4.80;;
15946;SDS011;8072;52.554;7.966;2023-07-13T14:33:16;7.47;;;4.63;;
15946;SDS011;8072;52.554;7.966;2023-07-13T14:35:42;6.47;;;4.53;;
15946;SDS011;8072;52.554;7.966;2023-07-13T14:38:11;8.40;;;4.70;;
15946;SDS011;8072;52.554;7.966;2023-07-13T14:40:40;9.23;;;5.60;;
15946;SDS011;8072;52.554;7.966;2023-07-13T14:43:10;13.67;;;5.73;;
15946;SDS011;8072;52.554;7.966;2023-07-13T14:45:38;13.37;;;6.33;;
15946;SDS011;8072;52.554;7.966;2023-07-13T14:48:12;11.33;;;5.77;;
15946;SDS011;8072;52.554;7.966;2023-07-13T14:50:44;7.03;;;5.47;;
15946;SDS011;8072;52.554;7.966;2023-07-13T14:53:11;6.83;;;4.60;;
15946;SDS011;8072;52.554;7.966;2023-07-13T14:55:38;6.77;;;4.70;;
15946;SDS011;8072;52.554;7.966;2023-07-13T14:58:04;6.20;;;4.87;;
15946;SDS011;8072;52.554;7.966;2023-07-13T15:00:30;7.03;;;4.23;;
15946;SDS011;8072;52.554;7.966;2023-07-13T15:02:57;4.97;;;4.30;;
15946;SDS011;8072;52.554;7.966;2023-07-13T15:05:27;6.43;;;4.60;;
15946;SDS011;8072;52.554;7.966;2023-07-13T15:07:57;7.53;;;4.63;;
15946;SDS011;8072;52.554;7.966;2023-07-13T15:10:26;6.10;;;4.60;;
15946;SDS011;8072;52.554;7.966;2023-07-13T15:12:58;8.27;;;4.97;;
15946;SDS011;8072;52.554;7.966;2023-07-13T15:15:29;6.90;;;4.53;;
15946;SDS011;8072;52.554;7.966;2023-07-13T15:17:58;7.10;;;3.57;;
15946;SDS011;8072;52.554;7.966;2023-07-13T15:20:27;5.23;;;3.00;;
15946;SDS011;8072;52.554;7.966;2023-07-13T15:22:56;5.87;;;2.80;;
15946;SDS011;8072;52.554;7.966;2023-07-13T15:25:25;6.40;;;2.73;;
15946;SDS011;8072;52.554;7.966;2023-07-13T15:27:54;4.67;;;2.80;;
15946;SDS011;8072;52.554;7.966;2023-07-13T15:30:21;7.33;;;3.70;;
15946;SDS011;8072;52.554;7.966;2023-07-13T15:32:47;4.37;;;2.90;;
15946;SDS011;8072;52.554;7.966;2023-07-13T15:35:21;3.00;;;2.67;;
15946;SDS011;8072;52.554;7.966;2023-07-13T15:37:50;5.90;;;3.00;;
15946;SDS011;8072;52.554;7.966;2023-07-13T15:40:16;5.57;;;2.90;;
15946;SDS011;8072;52.554;7.966;2023-07-13T15:42:43;3.42;;;2.55;;
15946;SDS011;8072;52.554;7.966;2023-07-13T15:47:42;4.93;;;3.20;;
15946;SDS011;8072;52.554;7.966;2023-07-13T15:50:29;3.85;;;2.63;;
15946;SDS011;8072;52.554;7.966;2023-07-13T15:53:08;3.25;;;2.72;;